sensor_id;sensor_type;location;lat;lon;timestamp;temperature;humidity
12329;DHT22;6230;52.390;10.256;2023-07-28T00:02:23;20.60;71.50
12329;DHT22;6230;52.390;10.256;2023-07-28T00:04:48;20.60;71.50
12329;DHT22;6230;52.390;10.256;2023-07-28T00:07:14;20.60;71.50
12329;DHT22;6230;52.390;10.256;2023-07-28T00:09:39;20.60;71.50
12329;DHT22;6230;52.390;10.256;2023-07-28T00:12:05;20.60;71.50
12329;DHT22;6230;52.390;10.256;2023-07-28T00:14:30;20.60;71.60
12329;DHT22;6230;52.390;10.256;2023-07-28T00:16:57;20.60;71.60
12329;DHT22;6230;52.390;10.256;2023-07-28T00:19:23;20.60;71.70
12329;DHT22;6230;52.390;10.256;2023-07-28T00:21:49;20.60;71.70
12329;DHT22;6230;52.390;10.256;2023-07-28T00:24:15;20.60;71.60
12329;DHT22;6230;52.390;10.256;2023-07-28T00:26:41;20.60;71.60
12329;DHT22;6230;52.390;10.256;2023-07-28T00:29:07;20.60;71.70
12329;DHT22;6230;52.390;10.256;2023-07-28T00:31:33;20.60;71.70
12329;DHT22;6230;52.390;10.256;2023-07-28T00:33:59;20.60;71.70
12329;DHT22;6230;52.390;10.256;2023-07-28T00:36:24;20.60;71.70
12329;DHT22;6230;52.390;10.256;2023-07-28T00:38:50;20.60;71.70
12329;DHT22;6230;52.390;10.256;2023-07-28T00:41:15;20.60;71.80
12329;DHT22;6230;52.390;10.256;2023-07-28T00:43:41;20.60;71.70
12329;DHT22;6230;52.390;10.256;2023-07-28T00:46:07;20.60;71.60
12329;DHT22;6230;52.390;10.256;2023-07-28T00:48:33;20.70;71.60
12329;DHT22;6230;52.390;10.256;2023-07-28T00:50:59;20.70;71.50
12329;DHT22;6230;52.390;10.256;2023-07-28T00:53:25;20.60;71.50
12329;DHT22;6230;52.390;10.256;2023-07-28T00:55:51;20.60;71.60
12329;DHT22;6230;52.390;10.256;2023-07-28T00:58:17;20.60;71.60
12329;DHT22;6230;52.390;10.256;2023-07-28T01:00:43;20.60;71.60
12329;DHT22;6230;52.390;10.256;2023-07-28T01:03:08;20.60;71.60
12329;DHT22;6230;52.390;10.256;2023-07-28T01:05:44;20.60;71.70
12329;DHT22;6230;52.390;10.256;2023-07-28T01:10:59;20.60;71.90
12329;DHT22;6230;52.390;10.256;2023-07-28T01:13:25;20.60;71.80
12329;DHT22;6230;52.390;10.256;2023-07-28T01:15:50;20.60;71.80
12329;DHT22;6230;52.390;10.256;2023-07-28T01:18:16;20.60;71.80
12329;DHT22;6230;52.390;10.256;2023-07-28T01:20:43;20.60;71.70
12329;DHT22;6230;52.390;10.256;2023-07-28T01:23:20;20.60;71.70
12329;DHT22;6230;52.390;10.256;2023-07-28T01:26:08;20.60;71.70
12329;DHT22;6230;52.390;10.256;2023-07-28T01:28:34;20.60;71.70
12329;DHT22;6230;52.390;10.256;2023-07-28T01:31:04;20.60;71.60
12329;DHT22;6230;52.390;10.256;2023-07-28T01:33:30;20.60;71.60
12329;DHT22;6230;52.390;10.256;2023-07-28T01:35:55;20.60;71.60
12329;DHT22;6230;52.390;10.256;2023-07-28T01:38:21;20.60;71.80
12329;DHT22;6230;52.390;10.256;2023-07-28T01:40:47;20.60;71.70
12329;DHT22;6230;52.390;10.256;2023-07-28T01:43:13;20.60;71.80
12329;DHT22;6230;52.390;10.256;2023-07-28T01:45:38;20.60;71.80
12329;DHT22;6230;52.390;10.256;2023-07-28T01:48:04;20.60;71.70
12329;DHT22;6230;52.390;10.256;2023-07-28T01:50:30;20.60;71.70
12329;DHT22;6230;52.390;10.256;2023-07-28T01:52:56;20.60;71.80
12329;DHT22;6230;52.390;10.256;2023-07-28T01:55:21;20.60;71.80
12329;DHT22;6230;52.390;10.256;2023-07-28T01:57:58;20.60;71.90
12329;DHT22;6230;52.390;10.256;2023-07-28T02:00:24;20.60;71.90
12329;DHT22;6230;52.390;10.256;2023-07-28T02:02:50;20.60;71.90
12329;DHT22;6230;52.390;10.256;2023-07-28T02:05:16;20.50;71.80
12329;DHT22;6230;52.390;10.256;2023-07-28T02:07:42;20.50;71.90
12329;DHT22;6230;52.390;10.256;2023-07-28T02:10:08;20.50;72.00
12329;DHT22;6230;52.390;10.256;2023-07-28T02:12:33;20.50;71.90
12329;DHT22;6230;52.390;10.256;2023-07-28T02:14:59;20.50;71.90
12329;DHT22;6230;52.390;10.256;2023-07-28T02:17:25;20.50;71.80
12329;DHT22;6230;52.390;10.256;2023-07-28T02:19:50;20.50;71.90
12329;DHT22;6230;52.390;10.256;2023-07-28T02:22:16;20.50;71.80
12329;DHT22;6230;52.390;10.256;2023-07-28T02:24:41;20.60;71.90
12329;DHT22;6230;52.390;10.256;2023-07-28T02:27:07;20.60;71.80
12329;DHT22;6230;52.390;10.256;2023-07-28T02:29:33;20.60;71.80
12329;DHT22;6230;52.390;10.256;2023-07-28T02:31:58;20.60;71.80
12329;DHT22;6230;52.390;10.256;2023-07-28T02:34:24;20.60;71.70
12329;DHT22;6230;52.390;10.256;2023-07-28T02:36:49;20.50;71.60
12329;DHT22;6230;52.390;10.256;2023-07-28T02:39:15;20.60;71.70
12329;DHT22;6230;52.390;10.256;2023-07-28T02:41:40;20.60;71.70
12329;DHT22;6230;52.390;10.256;2023-07-28T02:44:06;20.60;71.60
12329;DHT22;6230;52.390;10.256;2023-07-28T02:46:31;20.60;71.60
12329;DHT22;6230;52.390;10.256;2023-07-28T02:48:57;20.60;71.70
12329;DHT22;6230;52.390;10.256;2023-07-28T02:51:22;20.60;71.70
12329;DHT22;6230;52.390;10.256;2023-07-28T02:53:48;20.60;71.70
12329;DHT22;6230;52.390;10.256;2023-07-28T02:56:13;20.60;71.80
12329;DHT22;6230;52.390;10.256;2023-07-28T02:58:39;20.60;71.90
12329;DHT22;6230;52.390;10.256;2023-07-28T03:01:04;20.50;71.70
12329;DHT22;6230;52.390;10.256;2023-07-28T03:03:30;20.50;71.70
12329;DHT22;6230;52.390;10.256;2023-07-28T03:05:56;20.50;71.80
12329;DHT22;6230;52.390;10.256;2023-07-28T03:08:21;20.50;71.70
12329;DHT22;6230;52.390;10.256;2023-07-28T03:10:47;20.60;71.80
12329;DHT22;6230;52.390;10.256;2023-07-28T03:13:12;20.50;71.70
12329;DHT22;6230;52.390;10.256;2023-07-28T03:15:38;20.60;71.90
12329;DHT22;6230;52.390;10.256;2023-07-28T03:18:04;20.60;71.60
12329;DHT22;6230;52.390;10.256;2023-07-28T03:20:30;20.60;71.60
12329;DHT22;6230;52.390;10.256;2023-07-28T03:22:56;20.60;71.60
12329;DHT22;6230;52.390;10.256;2023-07-28T03:25:21;20.60;71.50
12329;DHT22;6230;52.390;10.256;2023-07-28T03:27:47;20.60;71.60
12329;DHT22;6230;52.390;10.256;2023-07-28T03:30:13;20.60;71.60
12329;DHT22;6230;52.390;10.256;2023-07-28T03:32:39;20.60;71.70
12329;DHT22;6230;52.390;10.256;2023-07-28T03:35:05;20.60;71.80
12329;DHT22;6230;52.390;10.256;2023-07-28T03:37:32;20.60;71.90
12329;DHT22;6230;52.390;10.256;2023-07-28T03:39:57;20.60;71.80
12329;DHT22;6230;52.390;10.256;2023-07-28T03:42:23;20.60;71.80
12329;DHT22;6230;52.390;10.256;2023-07-28T03:44:48;20.60;71.70
12329;DHT22;6230;52.390;10.256;2023-07-28T03:47:14;20.60;71.70
12329;DHT22;6230;52.390;10.256;2023-07-28T03:49:40;20.60;71.70
12329;DHT22;6230;52.390;10.256;2023-07-28T03:52:05;20.60;71.60
12329;DHT22;6230;52.390;10.256;2023-07-28T03:54:31;20.60;71.60
12329;DHT22;6230;52.390;10.256;2023-07-28T03:56:56;20.60;71.60
12329;DHT22;6230;52.390;10.256;2023-07-28T03:59:22;20.60;71.60
12329;DHT22;6230;52.390;10.256;2023-07-28T04:01:47;20.60;71.60
12329;DHT22;6230;52.390;10.256;2023-07-28T04:04:13;20.60;71.60
12329;DHT22;6230;52.390;10.256;2023-07-28T04:06:46;20.70;71.60
12329;DHT22;6230;52.390;10.256;2023-07-28T04:09:14;20.60;71.60
12329;DHT22;6230;52.390;10.256;2023-07-28T04:11:40;20.60;71.50
12329;DHT22;6230;52.390;10.256;2023-07-28T04:14:05;20.60;71.50
12329;DHT22;6230;52.390;10.256;2023-07-28T04:16:31;20.60;71.60
12329;DHT22;6230;52.390;10.256;2023-07-28T04:18:57;20.60;71.60
12329;DHT22;6230;52.390;10.256;2023-07-28T04:21:23;20.60;71.50
12329;DHT22;6230;52.390;10.256;2023-07-28T04:23:49;20.60;71.50
12329;DHT22;6230;52.390;10.256;2023-07-28T04:26:15;20.60;71.50
12329;DHT22;6230;52.390;10.256;2023-07-28T04:28:41;20.60;71.50
12329;DHT22;6230;52.390;10.256;2023-07-28T04:31:06;20.60;71.50
12329;DHT22;6230;52.390;10.256;2023-07-28T04:33:32;20.70;71.50
12329;DHT22;6230;52.390;10.256;2023-07-28T04:35:57;20.70;71.50
12329;DHT22;6230;52.390;10.256;2023-07-28T04:38:23;20.60;71.50
12329;DHT22;6230;52.390;10.256;2023-07-28T04:40:49;20.70;71.50
12329;DHT22;6230;52.390;10.256;2023-07-28T04:43:14;20.60;71.50
12329;DHT22;6230;52.390;10.256;2023-07-28T04:45:40;20.60;71.50
12329;DHT22;6230;52.390;10.256;2023-07-28T04:48:05;20.70;71.50
12329;DHT22;6230;52.390;10.256;2023-07-28T04:50:31;20.60;71.60
12329;DHT22;6230;52.390;10.256;2023-07-28T04:52:59;20.70;71.60
12329;DHT22;6230;52.390;10.256;2023-07-28T04:55:25;20.70;71.50
12329;DHT22;6230;52.390;10.256;2023-07-28T04:57:52;20.70;71.50
12329;DHT22;6230;52.390;10.256;2023-07-28T05:00:18;20.80;71.50
12329;DHT22;6230;52.390;10.256;2023-07-28T05:02:44;20.70;71.50
12329;DHT22;6230;52.390;10.256;2023-07-28T05:05:09;20.70;71.50
12329;DHT22;6230;52.390;10.256;2023-07-28T05:07:35;20.70;71.40
12329;DHT22;6230;52.390;10.256;2023-07-28T05:10:00;20.70;71.30
12329;DHT22;6230;52.390;10.256;2023-07-28T05:12:26;20.80;71.30
12329;DHT22;6230;52.390;10.256;2023-07-28T05:14:51;20.70;71.20
12329;DHT22;6230;52.390;10.256;2023-07-28T05:17:17;20.80;71.20
12329;DHT22;6230;52.390;10.256;2023-07-28T05:19:42;20.80;71.30
12329;DHT22;6230;52.390;10.256;2023-07-28T05:22:08;20.80;71.20
12329;DHT22;6230;52.390;10.256;2023-07-28T05:24:34;20.80;71.20
12329;DHT22;6230;52.390;10.256;2023-07-28T05:26:59;20.80;71.20
12329;DHT22;6230;52.390;10.256;2023-07-28T05:29:25;20.80;71.30
12329;DHT22;6230;52.390;10.256;2023-07-28T05:31:50;20.80;71.30
12329;DHT22;6230;52.390;10.256;2023-07-28T05:34:16;20.80;71.30
12329;DHT22;6230;52.390;10.256;2023-07-28T05:36:42;20.80;71.20
12329;DHT22;6230;52.390;10.256;2023-07-28T05:39:08;20.80;71.10
12329;DHT22;6230;52.390;10.256;2023-07-28T05:41:33;20.80;71.20
12329;DHT22;6230;52.390;10.256;2023-07-28T05:43:59;20.90;71.50
12329;DHT22;6230;52.390;10.256;2023-07-28T05:46:24;20.90;71.50
12329;DHT22;6230;52.390;10.256;2023-07-28T05:48:50;20.80;71.30
12329;DHT22;6230;52.390;10.256;2023-07-28T05:51:15;20.90;71.40
12329;DHT22;6230;52.390;10.256;2023-07-28T05:53:41;20.90;71.40
12329;DHT22;6230;52.390;10.256;2023-07-28T05:56:06;20.90;71.40
12329;DHT22;6230;52.390;10.256;2023-07-28T05:58:32;20.90;71.50
12329;DHT22;6230;52.390;10.256;2023-07-28T06:00:58;20.90;71.60
12329;DHT22;6230;52.390;10.256;2023-07-28T06:03:24;20.80;71.50
12329;DHT22;6230;52.390;10.256;2023-07-28T06:05:50;20.90;71.60
12329;DHT22;6230;52.390;10.256;2023-07-28T06:08:16;20.90;71.60
12329;DHT22;6230;52.390;10.256;2023-07-28T06:10:41;20.90;71.70
12329;DHT22;6230;52.390;10.256;2023-07-28T06:13:07;20.90;71.70
12329;DHT22;6230;52.390;10.256;2023-07-28T06:15:32;20.90;71.70
12329;DHT22;6230;52.390;10.256;2023-07-28T06:18:01;20.90;71.80
12329;DHT22;6230;52.390;10.256;2023-07-28T06:20:29;20.90;71.60
12329;DHT22;6230;52.390;10.256;2023-07-28T06:22:54;21.00;71.60
12329;DHT22;6230;52.390;10.256;2023-07-28T06:25:20;21.00;71.50
12329;DHT22;6230;52.390;10.256;2023-07-28T06:27:46;21.00;71.50
12329;DHT22;6230;52.390;10.256;2023-07-28T06:30:12;21.00;71.40
12329;DHT22;6230;52.390;10.256;2023-07-28T06:32:37;21.00;71.50
12329;DHT22;6230;52.390;10.256;2023-07-28T06:35:03;21.00;71.60
12329;DHT22;6230;52.390;10.256;2023-07-28T06:37:29;21.00;71.70
12329;DHT22;6230;52.390;10.256;2023-07-28T06:39:54;21.00;72.10
12329;DHT22;6230;52.390;10.256;2023-07-28T06:42:21;21.00;71.60
12329;DHT22;6230;52.390;10.256;2023-07-28T06:44:50;21.00;71.70
12329;DHT22;6230;52.390;10.256;2023-07-28T06:47:16;21.00;71.60
12329;DHT22;6230;52.390;10.256;2023-07-28T06:49:42;21.10;71.60
12329;DHT22;6230;52.390;10.256;2023-07-28T06:52:07;21.10;71.60
12329;DHT22;6230;52.390;10.256;2023-07-28T06:54:33;21.10;71.80
12329;DHT22;6230;52.390;10.256;2023-07-28T06:56:59;21.10;71.90
12329;DHT22;6230;52.390;10.256;2023-07-28T06:59:24;21.10;71.80
12329;DHT22;6230;52.390;10.256;2023-07-28T07:01:50;21.20;71.80
12329;DHT22;6230;52.390;10.256;2023-07-28T07:04:15;21.20;71.80
12329;DHT22;6230;52.390;10.256;2023-07-28T07:06:41;21.20;72.60
12329;DHT22;6230;52.390;10.256;2023-07-28T07:09:06;21.30;71.80
12329;DHT22;6230;52.390;10.256;2023-07-28T07:11:33;21.30;71.80
12329;DHT22;6230;52.390;10.256;2023-07-28T07:13:59;21.40;71.80
12329;DHT22;6230;52.390;10.256;2023-07-28T07:16:24;21.40;71.80
12329;DHT22;6230;52.390;10.256;2023-07-28T07:18:51;21.50;71.70
12329;DHT22;6230;52.390;10.256;2023-07-28T07:21:17;21.60;71.80
12329;DHT22;6230;52.390;10.256;2023-07-28T07:23:42;21.70;71.90
12329;DHT22;6230;52.390;10.256;2023-07-28T07:26:08;21.70;71.90
12329;DHT22;6230;52.390;10.256;2023-07-28T07:28:33;21.80;71.90
12329;DHT22;6230;52.390;10.256;2023-07-28T07:31:01;21.90;71.80
12329;DHT22;6230;52.390;10.256;2023-07-28T07:33:26;22.00;71.70
12329;DHT22;6230;52.390;10.256;2023-07-28T07:35:53;22.00;71.70
12329;DHT22;6230;52.390;10.256;2023-07-28T07:38:18;22.00;71.80
12329;DHT22;6230;52.390;10.256;2023-07-28T07:40:47;22.00;71.70
12329;DHT22;6230;52.390;10.256;2023-07-28T07:43:13;22.00;71.60
12329;DHT22;6230;52.390;10.256;2023-07-28T07:45:44;22.00;71.70
12329;DHT22;6230;52.390;10.256;2023-07-28T07:48:12;22.00;71.70
12329;DHT22;6230;52.390;10.256;2023-07-28T07:50:37;21.90;71.70
12329;DHT22;6230;52.390;10.256;2023-07-28T07:53:03;21.90;71.70
12329;DHT22;6230;52.390;10.256;2023-07-28T07:55:29;21.90;71.70
12329;DHT22;6230;52.390;10.256;2023-07-28T07:57:54;21.90;71.70
12329;DHT22;6230;52.390;10.256;2023-07-28T08:00:20;21.90;71.80
12329;DHT22;6230;52.390;10.256;2023-07-28T08:02:45;21.90;71.80
12329;DHT22;6230;52.390;10.256;2023-07-28T08:05:11;21.90;71.80
12329;DHT22;6230;52.390;10.256;2023-07-28T08:07:36;21.90;71.80
12329;DHT22;6230;52.390;10.256;2023-07-28T08:10:02;21.90;71.70
12329;DHT22;6230;52.390;10.256;2023-07-28T08:12:28;22.00;71.70
12329;DHT22;6230;52.390;10.256;2023-07-28T08:14:54;22.00;71.70
12329;DHT22;6230;52.390;10.256;2023-07-28T08:17:19;22.00;71.70
12329;DHT22;6230;52.390;10.256;2023-07-28T08:19:45;21.90;71.60
12329;DHT22;6230;52.390;10.256;2023-07-28T08:22:10;21.90;71.80
12329;DHT22;6230;52.390;10.256;2023-07-28T08:24:37;21.90;71.70
12329;DHT22;6230;52.390;10.256;2023-07-28T08:27:03;21.90;71.80
12329;DHT22;6230;52.390;10.256;2023-07-28T08:29:29;21.90;71.90
12329;DHT22;6230;52.390;10.256;2023-07-28T08:31:54;22.00;71.90
12329;DHT22;6230;52.390;10.256;2023-07-28T08:34:20;22.10;71.90
12329;DHT22;6230;52.390;10.256;2023-07-28T08:36:45;22.10;71.70
12329;DHT22;6230;52.390;10.256;2023-07-28T08:39:11;22.20;71.60
12329;DHT22;6230;52.390;10.256;2023-07-28T08:41:37;22.20;71.60
12329;DHT22;6230;52.390;10.256;2023-07-28T08:44:03;22.20;71.50
12329;DHT22;6230;52.390;10.256;2023-07-28T08:46:28;22.20;71.50
12329;DHT22;6230;52.390;10.256;2023-07-28T08:48:54;22.20;71.50
12329;DHT22;6230;52.390;10.256;2023-07-28T08:51:22;22.10;71.50
12329;DHT22;6230;52.390;10.256;2023-07-28T08:53:49;22.10;71.60
12329;DHT22;6230;52.390;10.256;2023-07-28T08:56:14;22.00;71.60
12329;DHT22;6230;52.390;10.256;2023-07-28T08:58:40;22.00;71.60
12329;DHT22;6230;52.390;10.256;2023-07-28T09:01:05;22.10;71.80
12329;DHT22;6230;52.390;10.256;2023-07-28T09:03:31;22.00;71.70
12329;DHT22;6230;52.390;10.256;2023-07-28T09:06:00;22.10;71.80
12329;DHT22;6230;52.390;10.256;2023-07-28T09:08:27;22.10;71.80
12329;DHT22;6230;52.390;10.256;2023-07-28T09:10:52;22.20;71.80
12329;DHT22;6230;52.390;10.256;2023-07-28T09:13:19;22.30;71.70
12329;DHT22;6230;52.390;10.256;2023-07-28T09:15:46;22.30;71.50
12329;DHT22;6230;52.390;10.256;2023-07-28T09:18:15;22.40;71.40
12329;DHT22;6230;52.390;10.256;2023-07-28T09:20:42;22.60;71.40
12329;DHT22;6230;52.390;10.256;2023-07-28T09:23:09;22.70;71.30
12329;DHT22;6230;52.390;10.256;2023-07-28T09:25:35;22.80;71.20
12329;DHT22;6230;52.390;10.256;2023-07-28T09:28:02;22.90;71.10
12329;DHT22;6230;52.390;10.256;2023-07-28T09:30:49;22.90;71.00
12329;DHT22;6230;52.390;10.256;2023-07-28T09:33:29;23.10;71.00
12329;DHT22;6230;52.390;10.256;2023-07-28T09:35:55;23.10;70.90
12329;DHT22;6230;52.390;10.256;2023-07-28T09:38:22;23.20;71.50
12329;DHT22;6230;52.390;10.256;2023-07-28T09:40:48;23.20;70.70
12329;DHT22;6230;52.390;10.256;2023-07-28T09:43:14;23.20;70.60
12329;DHT22;6230;52.390;10.256;2023-07-28T09:45:41;23.20;70.60
12329;DHT22;6230;52.390;10.256;2023-07-28T09:48:09;23.20;70.60
12329;DHT22;6230;52.390;10.256;2023-07-28T09:50:37;23.20;70.60
12329;DHT22;6230;52.390;10.256;2023-07-28T09:53:03;23.20;70.80
12329;DHT22;6230;52.390;10.256;2023-07-28T09:55:29;23.30;70.70
12329;DHT22;6230;52.390;10.256;2023-07-28T09:57:57;23.30;70.60
12329;DHT22;6230;52.390;10.256;2023-07-28T10:00:24;23.50;70.60
12329;DHT22;6230;52.390;10.256;2023-07-28T10:02:50;23.60;70.60
12329;DHT22;6230;52.390;10.256;2023-07-28T10:05:16;23.70;70.50
12329;DHT22;6230;52.390;10.256;2023-07-28T10:07:44;23.80;70.30
12329;DHT22;6230;52.390;10.256;2023-07-28T10:10:12;23.90;70.20
12329;DHT22;6230;52.390;10.256;2023-07-28T10:12:42;24.10;70.00
12329;DHT22;6230;52.390;10.256;2023-07-28T10:15:19;24.10;69.70
12329;DHT22;6230;52.390;10.256;2023-07-28T10:17:47;24.10;69.60
12329;DHT22;6230;52.390;10.256;2023-07-28T10:20:33;24.10;69.60
12329;DHT22;6230;52.390;10.256;2023-07-28T10:25:35;24.20;69.60
12329;DHT22;6230;52.390;10.256;2023-07-28T10:28:02;24.30;69.60
12329;DHT22;6230;52.390;10.256;2023-07-28T10:30:28;24.30;69.40
12329;DHT22;6230;52.390;10.256;2023-07-28T10:32:55;24.40;69.30
12329;DHT22;6230;52.390;10.256;2023-07-28T10:35:25;24.50;69.30
12329;DHT22;6230;52.390;10.256;2023-07-28T10:37:51;24.50;69.10
12329;DHT22;6230;52.390;10.256;2023-07-28T10:40:32;24.50;69.00
12329;DHT22;6230;52.390;10.256;2023-07-28T10:43:01;24.50;69.10
12329;DHT22;6230;52.390;10.256;2023-07-28T10:45:31;24.50;69.00
12329;DHT22;6230;52.390;10.256;2023-07-28T10:47:58;24.50;69.70
12329;DHT22;6230;52.390;10.256;2023-07-28T10:50:29;24.60;68.90
12329;DHT22;6230;52.390;10.256;2023-07-28T10:52:55;24.60;68.90
12329;DHT22;6230;52.390;10.256;2023-07-28T10:55:26;24.60;68.90
12329;DHT22;6230;52.390;10.256;2023-07-28T10:57:54;24.70;68.90
12329;DHT22;6230;52.390;10.256;2023-07-28T11:00:21;24.70;68.60
12329;DHT22;6230;52.390;10.256;2023-07-28T11:02:52;24.70;68.60
12329;DHT22;6230;52.390;10.256;2023-07-28T11:05:21;24.70;68.60
12329;DHT22;6230;52.390;10.256;2023-07-28T11:07:48;24.70;68.50
12329;DHT22;6230;52.390;10.256;2023-07-28T11:10:14;24.70;68.50
12329;DHT22;6230;52.390;10.256;2023-07-28T11:12:44;24.70;68.50
12329;DHT22;6230;52.390;10.256;2023-07-28T11:15:11;24.70;68.40
12329;DHT22;6230;52.390;10.256;2023-07-28T11:17:38;24.70;68.30
12329;DHT22;6230;52.390;10.256;2023-07-28T11:20:18;24.80;68.30
12329;DHT22;6230;52.390;10.256;2023-07-28T11:22:45;24.90;68.40
12329;DHT22;6230;52.390;10.256;2023-07-28T11:25:11;24.90;68.10
12329;DHT22;6230;52.390;10.256;2023-07-28T11:27:38;25.00;68.00
12329;DHT22;6230;52.390;10.256;2023-07-28T11:30:04;25.00;67.80
12329;DHT22;6230;52.390;10.256;2023-07-28T11:32:31;25.00;67.70
12329;DHT22;6230;52.390;10.256;2023-07-28T11:35:07;25.00;67.70
12329;DHT22;6230;52.390;10.256;2023-07-28T11:37:35;25.10;67.80
12329;DHT22;6230;52.390;10.256;2023-07-28T11:40:02;25.30;67.60
12329;DHT22;6230;52.390;10.256;2023-07-28T11:42:39;25.50;67.40
12329;DHT22;6230;52.390;10.256;2023-07-28T11:45:05;25.50;67.00
12329;DHT22;6230;52.390;10.256;2023-07-28T11:47:32;25.40;66.80
12329;DHT22;6230;52.390;10.256;2023-07-28T11:49:58;25.40;66.90
12329;DHT22;6230;52.390;10.256;2023-07-28T11:52:34;25.40;67.00
12329;DHT22;6230;52.390;10.256;2023-07-28T11:55:05;25.40;67.20
12329;DHT22;6230;52.390;10.256;2023-07-28T11:57:31;25.60;67.10
12329;DHT22;6230;52.390;10.256;2023-07-28T11:59:58;25.70;66.90
12329;DHT22;6230;52.390;10.256;2023-07-28T12:02:26;25.80;66.60
12329;DHT22;6230;52.390;10.256;2023-07-28T12:04:52;25.80;66.50
12329;DHT22;6230;52.390;10.256;2023-07-28T12:07:20;25.90;66.50
12329;DHT22;6230;52.390;10.256;2023-07-28T12:12:45;26.00;66.00
12329;DHT22;6230;52.390;10.256;2023-07-28T12:15:22;26.00;65.90
12329;DHT22;6230;52.390;10.256;2023-07-28T12:18:27;26.10;65.90
12329;DHT22;6230;52.390;10.256;2023-07-28T12:20:54;26.10;65.80
12329;DHT22;6230;52.390;10.256;2023-07-28T12:23:22;26.10;65.60
12329;DHT22;6230;52.390;10.256;2023-07-28T12:25:48;26.10;65.70
12329;DHT22;6230;52.390;10.256;2023-07-28T12:28:15;26.10;66.50
12329;DHT22;6230;52.390;10.256;2023-07-28T12:30:41;26.00;65.40
12329;DHT22;6230;52.390;10.256;2023-07-28T12:33:07;26.00;65.30
12329;DHT22;6230;52.390;10.256;2023-07-28T12:35:34;26.00;65.30
12329;DHT22;6230;52.390;10.256;2023-07-28T12:38:03;25.90;65.30
12329;DHT22;6230;52.390;10.256;2023-07-28T12:40:30;25.90;65.30
12329;DHT22;6230;52.390;10.256;2023-07-28T12:42:57;26.00;65.40
12329;DHT22;6230;52.390;10.256;2023-07-28T12:45:23;26.10;65.40
12329;DHT22;6230;52.390;10.256;2023-07-28T12:47:51;26.30;65.20
12329;DHT22;6230;52.390;10.256;2023-07-28T12:50:18;26.50;65.00
12329;DHT22;6230;52.390;10.256;2023-07-28T12:52:43;26.60;64.60
12329;DHT22;6230;52.390;10.256;2023-07-28T12:55:09;26.60;64.50
12329;DHT22;6230;52.390;10.256;2023-07-28T12:57:35;26.60;64.30
12329;DHT22;6230;52.390;10.256;2023-07-28T13:00:00;26.50;64.30
12329;DHT22;6230;52.390;10.256;2023-07-28T13:02:26;26.60;64.70
12329;DHT22;6230;52.390;10.256;2023-07-28T13:04:52;26.70;64.60
12329;DHT22;6230;52.390;10.256;2023-07-28T13:07:17;26.80;64.40
12329;DHT22;6230;52.390;10.256;2023-07-28T13:09:43;27.00;63.90
12329;DHT22;6230;52.390;10.256;2023-07-28T13:12:08;27.10;63.70
12329;DHT22;6230;52.390;10.256;2023-07-28T13:14:34;27.10;63.60
12329;DHT22;6230;52.390;10.256;2023-07-28T13:17:00;27.10;63.60
12329;DHT22;6230;52.390;10.256;2023-07-28T13:19:26;27.10;63.70
12329;DHT22;6230;52.390;10.256;2023-07-28T13:21:51;27.20;63.50
12329;DHT22;6230;52.390;10.256;2023-07-28T13:24:17;27.20;63.40
12329;DHT22;6230;52.390;10.256;2023-07-28T13:26:42;27.30;63.40
12329;DHT22;6230;52.390;10.256;2023-07-28T13:29:08;27.30;63.20
12329;DHT22;6230;52.390;10.256;2023-07-28T13:31:34;27.30;63.00
12329;DHT22;6230;52.390;10.256;2023-07-28T13:33:59;27.30;63.10
12329;DHT22;6230;52.390;10.256;2023-07-28T13:36:25;27.30;63.10
12329;DHT22;6230;52.390;10.256;2023-07-28T13:38:50;27.40;63.10
12329;DHT22;6230;52.390;10.256;2023-07-28T13:41:16;27.50;62.80
12329;DHT22;6230;52.390;10.256;2023-07-28T13:43:41;27.70;62.40
12329;DHT22;6230;52.390;10.256;2023-07-28T13:46:07;27.70;62.10
12329;DHT22;6230;52.390;10.256;2023-07-28T13:48:34;27.70;62.10
12329;DHT22;6230;52.390;10.256;2023-07-28T13:51:01;27.80;62.20
12329;DHT22;6230;52.390;10.256;2023-07-28T13:53:27;27.80;61.90
12329;DHT22;6230;52.390;10.256;2023-07-28T13:55:54;27.80;62.00
12329;DHT22;6230;52.390;10.256;2023-07-28T13:58:20;27.80;61.80
12329;DHT22;6230;52.390;10.256;2023-07-28T14:00:46;27.90;61.90
12329;DHT22;6230;52.390;10.256;2023-07-28T14:03:12;28.00;61.40
12329;DHT22;6230;52.390;10.256;2023-07-28T14:05:38;28.00;61.30
12329;DHT22;6230;52.390;10.256;2023-07-28T14:08:03;28.10;61.20
12329;DHT22;6230;52.390;10.256;2023-07-28T14:10:29;28.20;61.00
12329;DHT22;6230;52.390;10.256;2023-07-28T14:12:54;28.20;60.90
12329;DHT22;6230;52.390;10.256;2023-07-28T14:15:20;28.30;60.50
12329;DHT22;6230;52.390;10.256;2023-07-28T14:17:45;28.40;60.30
12329;DHT22;6230;52.390;10.256;2023-07-28T14:20:11;28.40;60.00
12329;DHT22;6230;52.390;10.256;2023-07-28T14:22:37;28.40;59.90
12329;DHT22;6230;52.390;10.256;2023-07-28T14:25:03;28.30;59.70
12329;DHT22;6230;52.390;10.256;2023-07-28T14:27:28;28.10;59.60
12329;DHT22;6230;52.390;10.256;2023-07-28T14:29:54;28.00;59.60
12329;DHT22;6230;52.390;10.256;2023-07-28T14:32:19;28.10;60.00
12329;DHT22;6230;52.390;10.256;2023-07-28T14:34:45;28.10;59.70
12329;DHT22;6230;52.390;10.256;2023-07-28T14:37:10;28.20;59.90
12329;DHT22;6230;52.390;10.256;2023-07-28T14:39:36;28.20;59.70
12329;DHT22;6230;52.390;10.256;2023-07-28T14:42:02;28.20;59.70
12329;DHT22;6230;52.390;10.256;2023-07-28T14:44:28;28.20;59.70
12329;DHT22;6230;52.390;10.256;2023-07-28T14:46:54;28.30;59.80
12329;DHT22;6230;52.390;10.256;2023-07-28T14:49:20;28.30;59.60
12329;DHT22;6230;52.390;10.256;2023-07-28T14:51:46;28.30;59.60
12329;DHT22;6230;52.390;10.256;2023-07-28T14:54:11;28.40;59.70
12329;DHT22;6230;52.390;10.256;2023-07-28T14:56:37;28.40;59.70
12329;DHT22;6230;52.390;10.256;2023-07-28T14:59:02;28.40;59.50
12329;DHT22;6230;52.390;10.256;2023-07-28T15:01:29;28.40;59.30
12329;DHT22;6230;52.390;10.256;2023-07-28T15:03:54;28.30;59.30
12329;DHT22;6230;52.390;10.256;2023-07-28T15:06:20;28.10;59.20
12329;DHT22;6230;52.390;10.256;2023-07-28T15:08:46;28.00;59.40
12329;DHT22;6230;52.390;10.256;2023-07-28T15:11:11;28.00;59.60
12329;DHT22;6230;52.390;10.256;2023-07-28T15:13:37;27.90;59.60
12329;DHT22;6230;52.390;10.256;2023-07-28T15:16:02;27.90;60.30
12329;DHT22;6230;52.390;10.256;2023-07-28T15:18:28;27.90;59.60
12329;DHT22;6230;52.390;10.256;2023-07-28T15:20:53;27.90;59.60
12329;DHT22;6230;52.390;10.256;2023-07-28T15:23:22;27.90;59.60
12329;DHT22;6230;52.390;10.256;2023-07-28T15:25:48;28.00;59.60
12329;DHT22;6230;52.390;10.256;2023-07-28T15:28:14;28.00;59.50
12329;DHT22;6230;52.390;10.256;2023-07-28T15:30:40;28.00;60.00
12329;DHT22;6230;52.390;10.256;2023-07-28T15:33:07;28.10;59.40
12329;DHT22;6230;52.390;10.256;2023-07-28T15:35:33;28.10;59.30